Time;durP1;ratioP1;P1;durP2;ratioP2;P2;SDS_P1;SDS_P2;PMS_P1;PMS_P2;Temp;Humidity;BMP_temperature;BMP_pressure;BME280_temperature;BME280_humidity;BME280_pressure;Samples;Min_cycle;Max_cycle;Signal;HPM_P1;HPM_P2
2022/04/23 00:00:21;;;;;;;27.23;14.87;;;8.00;99.90;;;;;;5032210;28;20199;-76
2022/04/23 00:02:48;;;;;;;26.13;14.63;;;7.80;99.90;;;;;;5032049;28;20203;-77
2022/04/23 00:05:16;;;;;;;24.80;15.17;;;7.80;99.90;;;;;;5033228;28;20195;-77
2022/04/23 00:07:43;;;;;;;25.30;15.47;;;7.90;99.90;;;;;;5031998;28;20223;-77
2022/04/23 00:10:11;;;;;;;30.10;15.33;;;7.80;99.90;;;;;;5032136;28;20286;-75
2022/04/23 00:12:39;;;;;;;21.83;14.20;;;7.80;99.90;;;;;;5032084;28;20199;-75
2022/04/23 00:15:07;;;;;;;24.70;14.57;;;7.70;99.90;;;;;;5033065;28;20237;-76
2022/04/23 00:17:35;;;;;;;23.37;14.37;;;7.70;99.90;;;;;;5031988;28;20210;-77
2022/04/23 00:20:02;;;;;;;24.23;14.40;;;7.70;99.90;;;;;;5032192;28;20199;-79
2022/04/23 00:22:40;;;;;;;25.13;15.60;;;7.70;99.90;;;;;;5016021;28;20234;-76
2022/04/23 00:25:21;;;;;;;24.50;14.83;;;7.60;99.90;;;;;;4988521;28;20192;-77
2022/04/23 00:27:49;;;;;;;27.23;14.63;;;7.60;99.90;;;;;;5031918;28;20238;-79
2022/04/23 00:30:16;;;;;;;25.47;15.13;;;7.60;99.90;;;;;;5033429;28;20202;-90
2022/04/23 00:33:04;;;;;;;23.53;15.17;;;7.60;99.90;;;;;;5044418;28;20198;-78
2022/04/23 00:35:40;;;;;;;27.63;14.90;;;7.70;99.90;;;;;;5042821;28;20202;-87
2022/04/23 00:38:08;;;;;;;25.10;14.00;;;7.60;99.90;;;;;;5038596;28;20241;-90
2022/04/23 00:40:38;;;;;;;25.63;15.30;;;7.60;99.90;;;;;;5041093;28;20525;-91
2022/04/23 00:43:27;;;;;;;28.07;15.03;;;7.50;99.90;;;;;;5052021;28;20211;-84
2022/04/23 00:46:19;;;;;;;23.70;15.23;;;7.50;99.90;;;;;;5044840;28;20248;-89
2022/04/23 00:48:46;;;;;;;21.90;13.97;;;7.50;99.90;;;;;;5046391;28;20676;-77
2022/04/23 00:51:14;;;;;;;23.70;15.07;;;7.60;99.90;;;;;;5055099;28;20312;-77
2022/04/23 00:53:41;;;;;;;23.97;14.40;;;7.50;99.90;;;;;;5055632;28;20191;-78
2022/04/23 01:00:11;;;;;;;23.43;14.03;;;7.50;99.90;;;;;;5015850;28;20202;-81
2022/04/23 01:02:38;;;;;;;20.63;13.67;;;7.50;99.90;;;;;;5018572;28;20237;-87
2022/04/23 01:05:31;;;;;;;23.50;14.23;;;7.40;99.90;;;;;;5021443;28;20239;-77
2022/04/23 01:08:39;;;;;;;21.73;13.67;;;7.50;99.90;;;;;;5037932;28;20236;-84
2022/04/23 01:11:10;;;;;;;25.97;14.67;;;7.50;99.90;;;;;;4980195;28;20206;-88
2022/04/23 01:14:01;;;;;;;22.07;13.70;;;7.50;99.90;;;;;;5022605;28;20200;-84
2022/04/23 01:16:31;;;;;;;23.53;14.30;;;7.50;99.90;;;;;;5034432;28;20206;-79
2022/04/23 01:19:23;;;;;;;22.10;13.47;;;7.60;99.90;;;;;;5021255;28;20211;-79
2022/04/23 01:22:02;;;;;;;23.83;13.83;;;7.60;99.90;;;;;;5038334;28;20203;-87
2022/04/23 01:24:34;;;;;;;22.07;14.23;;;7.60;99.90;;;;;;5004563;28;20676;-83
2022/04/23 01:27:04;;;;;;;25.43;14.33;;;7.60;99.90;;;;;;5002529;28;20616;-78
2022/04/23 01:29:31;;;;;;;19.47;13.07;;;7.60;99.90;;;;;;5018794;28;20210;-77
2022/04/23 01:31:59;;;;;;;20.70;13.23;;;7.60;99.90;;;;;;5035557;28;20195;-78
2022/04/23 01:34:29;;;;;;;20.77;13.07;;;7.70;99.90;;;;;;5041878;28;20664;-76
2022/04/23 01:36:56;;;;;;;19.60;13.20;;;7.70;99.90;;;;;;5020489;28;20229;-77
2022/04/23 01:39:23;;;;;;;22.57;13.50;;;7.70;99.90;;;;;;5034358;28;20202;-77
2022/04/23 01:41:50;;;;;;;20.47;13.50;;;7.80;99.90;;;;;;5019361;28;20208;-86
2022/04/23 01:44:21;;;;;;;20.57;13.83;;;7.80;99.90;;;;;;5035963;28;20310;-87
2022/04/23 01:46:54;;;;;;;21.03;13.87;;;7.90;99.90;;;;;;5043051;28;20245;-78
2022/04/23 01:49:45;;;;;;;19.80;12.90;;;8.00;99.90;;;;;;5035397;28;20308;-78
2022/04/23 01:52:55;;;;;;;;;;;;;;;;;;;;;
2022/04/23 01:56:29;;;;;;;19.13;12.33;;;8.00;99.90;;;;;;4965697;28;20701;-87
2022/04/23 01:59:00;;;;;;;19.47;12.57;;;7.90;99.90;;;;;;5037719;28;20205;-89
2022/04/23 02:01:37;;;;;;;20.13;13.27;;;8.00;99.90;;;;;;5047083;28;20202;-86
2022/04/23 02:04:08;;;;;;;20.60;13.07;;;8.10;99.90;;;;;;5061521;28;20693;-88
2022/04/23 02:06:35;;;;;;;20.87;12.80;;;8.10;99.90;;;;;;5034904;28;20222;-92
2022/04/23 02:09:02;;;;;;;20.60;12.93;;;8.10;99.90;;;;;;5018006;28;20199;-89
2022/04/23 02:11:29;;;;;;;22.53;13.60;;;8.10;99.90;;;;;;5040766;28;20210;-90
2022/04/23 02:14:02;;;;;;;16.93;11.83;;;8.10;99.90;;;;;;5018633;28;20571;-79
2022/04/23 02:16:32;;;;;;;19.03;11.97;;;8.10;99.90;;;;;;5033789;28;20194;-80
2022/04/23 02:19:02;;;;;;;17.47;12.07;;;8.10;99.90;;;;;;5034362;28;20297;-78
2022/04/23 02:21:33;;;;;;;18.73;11.80;;;8.00;99.90;;;;;;5038877;28;20237;-88
2022/04/23 02:24:04;;;;;;;19.50;12.17;;;7.90;99.90;;;;;;5053107;28;20205;-88
2022/04/23 02:26:40;;;;;;;18.60;12.00;;;8.00;99.90;;;;;;5019623;28;20317;-86
2022/04/23 02:29:18;;;;;;;19.80;12.07;;;8.00;99.90;;;;;;5037273;28;20195;-78
2022/04/23 02:31:48;;;;;;;18.10;12.30;;;8.00;99.90;;;;;;5019123;28;20336;-78
2022/04/23 02:34:16;;;;;;;17.63;11.73;;;8.00;99.90;;;;;;5022251;28;20229;-78
2022/04/23 02:36:59;;;;;;;17.77;12.13;;;8.00;99.90;;;;;;5036550;28;20267;-85
2022/04/23 02:39:26;;;;;;;20.13;12.83;;;8.00;99.90;;;;;;5035433;28;20685;-86
2022/04/23 02:41:53;;;;;;;19.73;12.90;;;8.00;99.90;;;;;;5035438;28;20207;-86
2022/04/23 02:44:20;;;;;;;19.20;12.83;;;8.00;99.90;;;;;;5036385;28;20194;-88
2022/04/23 02:46:47;;;;;;;18.53;12.03;;;8.00;99.90;;;;;;5041389;28;20238;-87
2022/04/23 02:49:18;;;;;;;19.50;12.50;;;7.90;99.90;;;;;;5038052;28;20213;-87
2022/04/23 02:51:45;;;;;;;18.27;12.53;;;7.90;99.90;;;;;;5055293;28;20205;-88
2022/04/23 02:54:12;;;;;;;17.57;12.43;;;8.00;99.90;;;;;;5037083;28;20556;-91
2022/04/23 02:56:40;;;;;;;19.37;12.60;;;8.00;99.90;;;;;;5036956;28;20191;-82
2022/04/23 02:59:13;;;;;;;21.33;12.27;;;8.00;99.90;;;;;;5037642;28;20286;-86
2022/04/23 03:01:58;;;;;;;18.77;12.23;;;8.00;99.90;;;;;;5036494;28;20201;-76
2022/04/23 03:04:43;;;;;;;19.20;12.30;;;8.00;99.90;;;;;;5039274;28;20292;-87
2022/04/23 03:07:31;;;;;;;20.97;12.70;;;8.00;99.90;;;;;;5057014;28;20225;-79
2022/04/23 03:10:08;;;;;;;20.77;12.60;;;8.00;99.90;;;;;;5022463;28;20214;-77
2022/04/23 03:12:36;;;;;;;21.30;12.97;;;8.00;99.90;;;;;;5055629;28;20286;-89
2022/04/23 03:15:05;;;;;;;18.87;13.00;;;8.00;99.90;;;;;;5037016;28;20651;-86
2022/04/23 03:17:32;;;;;;;18.53;12.77;;;8.00;99.90;;;;;;5039873;28;20218;-84
2022/04/23 03:20:07;;;;;;;17.73;12.60;;;8.00;99.90;;;;;;5065636;28;20210;-78
2022/04/23 03:22:54;;;;;;;19.17;12.77;;;8.00;99.90;;;;;;5026541;28;20651;-87
2022/04/23 03:25:22;;;;;;;19.90;13.10;;;8.00;99.90;;;;;;5036308;28;20197;-86
2022/04/23 03:27:50;;;;;;;18.67;13.07;;;8.00;99.90;;;;;;5042011;28;20245;-79
2022/04/23 03:30:28;;;;;;;17.90;12.10;;;8.10;99.90;;;;;;5039662;28;20215;-78
2022/04/23 03:32:59;;;;;;;19.87;13.10;;;8.10;99.90;;;;;;5040800;28;20202;-78
2022/04/23 03:35:55;;;;;;;18.70;12.47;;;8.10;99.90;;;;;;5043868;28;20650;-82
2022/04/23 03:38:23;;;;;;;20.43;12.27;;;8.00;99.90;;;;;;5014239;28;20215;-78
2022/04/23 03:40:53;;;;;;;17.60;11.70;;;8.10;99.90;;;;;;5054720;28;20595;-87
2022/04/23 03:43:22;;;;;;;18.80;12.87;;;8.00;99.90;;;;;;5043432;28;20199;-79
2022/04/23 03:46:06;;;;;;;23.57;12.37;;;8.00;99.90;;;;;;5053628;28;20258;-79
2022/04/23 03:48:33;;;;;;;17.53;12.03;;;8.00;99.90;;;;;;5040137;28;20228;-87
2022/04/23 03:51:01;;;;;;;19.33;12.50;;;8.00;99.90;;;;;;5036491;28;20216;-77
2022/04/23 03:53:31;;;;;;;17.10;12.13;;;8.00;99.90;;;;;;5040546;28;20296;-77
2022/04/23 03:55:58;;;;;;;19.67;12.73;;;8.00;99.90;;;;;;5054056;28;20197;-77
2022/04/23 03:58:51;;;;;;;18.70;12.10;;;8.00;99.90;;;;;;5037049;28;20735;-88
2022/04/23 04:01:23;;;;;;;17.60;11.87;;;7.90;99.90;;;;;;5035683;28;20273;-87
2022/04/23 04:03:53;;;;;;;18.13;11.97;;;7.90;99.90;;;;;;5041387;28;20194;-77
2022/04/23 04:06:27;;;;;;;19.23;12.07;;;7.90;99.90;;;;;;5047683;28;20613;-78
2022/04/23 04:08:55;;;;;;;18.37;11.97;;;7.90;99.90;;;;;;5061943;28;20307;-78
2022/04/23 04:11:22;;;;;;;18.47;12.30;;;7.90;99.90;;;;;;5077879;28;20254;-77
2022/04/23 04:13:49;;;;;;;18.23;12.30;;;7.90;99.90;;;;;;5060329;28;20202;-80
2022/04/23 04:16:22;;;;;;;18.10;12.13;;;7.90;99.90;;;;;;5059595;28;20544;-87
2022/04/23 04:18:50;;;;;;;17.00;11.57;;;8.00;99.90;;;;;;5062380;28;20209;-78
2022/04/23 04:21:19;;;;;;;17.33;11.40;;;8.00;99.90;;;;;;5065119;28;20252;-89
2022/04/23 04:23:52;;;;;;;20.80;11.60;;;8.00;99.90;;;;;;5048943;28;20208;-85
2022/04/23 04:26:20;;;;;;;19.83;11.57;;;8.10;99.90;;;;;;5079585;28;20198;-79
2022/04/23 04:28:51;;;;;;;16.93;11.23;;;8.10;99.90;;;;;;5063678;28;20235;-80
2022/04/23 04:34:14;;;;;;;17.40;10.83;;;8.10;99.90;;;;;;5077470;28;20227;-79
2022/04/23 04:37:21;;;;;;;13.97;10.27;;;8.10;99.90;;;;;;5086981;28;20201;-81
2022/04/23 04:40:37;;;;;;;14.27;9.80;;;8.10;99.90;;;;;;5070783;28;20204;-77
2022/04/23 04:43:57;;;;;;;;;;;;;;;;;;;;;
2022/04/23 04:47:54;;;;;;;14.97;9.50;;;8.10;99.90;;;;;;4848494;29;20240;-77
2022/04/23 04:50:41;;;;;;;13.07;9.27;;;8.10;99.90;;;;;;4864913;29;20231;-78
2022/04/23 04:53:11;;;;;;;14.47;8.97;;;8.20;99.90;;;;;;4855368;29;20247;-78
2022/04/23 04:55:43;;;;;;;14.83;9.30;;;8.20;99.90;;;;;;4864584;29;20243;-78
2022/04/23 04:58:10;;;;;;;11.53;8.53;;;8.20;99.90;;;;;;4865629;29;20208;-85
2022/04/23 05:00:40;;;;;;;14.50;9.67;;;8.10;99.90;;;;;;4869841;29;20205;-82
2022/04/23 05:03:07;;;;;;;14.73;9.63;;;8.20;99.90;;;;;;4865669;29;20204;-89
2022/04/23 05:05:39;;;;;;;12.73;9.30;;;8.30;99.90;;;;;;4865176;29;20714;-88
2022/04/23 05:08:06;;;;;;;13.20;9.03;;;8.40;99.90;;;;;;4867724;29;20275;-77
2022/04/23 05:10:43;;;;;;;12.27;8.53;;;8.50;99.90;;;;;;4876698;29;20223;-84
2022/04/23 05:13:13;;;;;;;13.00;8.80;;;8.60;99.90;;;;;;4860495;29;20216;-87
2022/04/23 05:15:40;;;;;;;12.87;8.83;;;8.50;99.90;;;;;;4863461;29;20205;-84
2022/04/23 05:18:07;;;;;;;11.40;8.10;;;8.70;99.90;;;;;;4863487;29;20212;-76
2022/04/23 05:20:53;;;;;;;11.47;8.10;;;8.70;99.90;;;;;;4876842;29;20208;-88
2022/04/23 05:23:38;;;;;;;12.57;8.40;;;8.80;99.90;;;;;;4940224;28;20239;-86
2022/04/23 05:26:18;;;;;;;11.77;8.13;;;8.80;99.90;;;;;;4958598;28;20199;-77
2022/04/23 05:28:46;;;;;;;12.77;8.23;;;8.90;99.90;;;;;;5005046;28;20306;-85
2022/04/23 05:31:18;;;;;;;11.63;8.10;;;8.90;99.90;;;;;;4999251;28;20201;-81
2022/04/23 05:33:55;;;;;;;11.17;7.73;;;8.90;99.90;;;;;;4996689;28;20207;-78
2022/04/23 05:36:23;;;;;;;10.30;7.50;;;9.00;99.90;;;;;;4998221;28;20554;-90
2022/04/23 05:38:56;;;;;;;10.67;7.50;;;9.00;99.90;;;;;;5017708;28;20256;-78
2022/04/23 05:41:26;;;;;;;10.47;7.43;;;9.10;99.90;;;;;;5001079;28;20223;-79
2022/04/23 05:43:58;;;;;;;11.63;6.97;;;9.10;99.90;;;;;;5011595;28;20691;-81
2022/04/23 05:46:25;;;;;;;8.93;6.57;;;9.10;99.90;;;;;;5042221;28;20292;-79
2022/04/23 05:48:52;;;;;;;9.33;7.10;;;9.10;99.90;;;;;;5054094;28;20606;-75
2022/04/23 05:51:23;;;;;;;12.30;6.33;;;9.20;99.90;;;;;;5057249;28;20268;-81
2022/04/23 05:53:52;;;;;;;10.40;6.87;;;9.20;99.90;;;;;;5059989;28;20187;-82
2022/04/23 05:56:20;;;;;;;9.53;6.60;;;9.20;99.90;;;;;;5059391;28;20548;-78
2022/04/23 05:59:26;;;;;;;9.07;6.53;;;9.20;99.90;;;;;;5055318;28;20312;-79
2022/04/23 06:01:53;;;;;;;8.83;6.20;;;9.40;99.90;;;;;;5052512;28;20204;-77
2022/04/23 06:04:53;;;;;;;8.03;6.40;;;9.40;99.90;;;;;;5058530;28;20199;-78
2022/04/23 06:07:46;;;;;;;8.30;6.10;;;9.50;99.90;;;;;;5061454;28;20229;-79
2022/04/23 06:10:23;;;;;;;9.57;5.87;;;9.60;99.90;;;;;;5060384;28;20262;-77
2022/04/23 06:13:29;;;;;;;;;;;;;;;;;;;;;
2022/04/23 06:16:21;;;;;;;8.10;5.90;;;9.50;99.90;;;;;;5048434;28;20265;-86
2022/04/23 06:18:48;;;;;;;7.90;5.50;;;9.50;99.90;;;;;;5054989;28;20682;-84
2022/04/23 06:21:15;;;;;;;9.13;6.10;;;9.70;99.90;;;;;;5057523;28;20199;-77
2022/04/23 06:23:48;;;;;;;8.10;5.70;;;9.70;99.90;;;;;;5056923;28;20225;-80
2022/04/23 06:26:21;;;;;;;6.93;5.40;;;9.80;99.90;;;;;;5054399;28;20199;-78
2022/04/23 06:29:14;;;;;;;7.40;5.10;;;9.80;99.90;;;;;;5054039;28;20275;-76
2022/04/23 06:31:45;;;;;;;6.70;5.07;;;9.80;99.90;;;;;;5058431;28;20191;-86
2022/04/23 06:34:12;;;;;;;6.40;5.00;;;9.80;99.90;;;;;;5059759;28;20555;-78
2022/04/23 06:36:40;;;;;;;6.57;4.97;;;10.00;99.90;;;;;;5055298;28;20202;-87
2022/04/23 06:39:07;;;;;;;6.87;5.10;;;10.10;99.90;;;;;;5060582;28;20289;-78
2022/04/23 06:41:35;;;;;;;6.23;4.57;;;10.30;99.90;;;;;;5056131;28;20202;-80
2022/04/23 06:44:02;;;;;;;5.60;4.27;;;10.40;99.90;;;;;;5055459;28;20202;-75
2022/04/23 06:46:29;;;;;;;8.03;4.77;;;10.50;99.90;;;;;;5054515;28;20231;-78
2022/04/23 06:49:00;;;;;;;6.17;4.60;;;10.60;99.90;;;;;;5055656;28;20219;-81
2022/04/23 06:51:26;;;;;;;6.40;4.50;;;10.50;99.90;;;;;;5054762;28;20695;-77
2022/04/23 06:53:53;;;;;;;6.13;4.73;;;10.50;99.90;;;;;;5053620;28;20194;-77
2022/04/23 06:56:30;;;;;;;6.33;4.40;;;10.60;99.90;;;;;;5055526;28;20194;-76
2022/04/23 06:58:57;;;;;;;6.00;4.23;;;10.50;99.90;;;;;;5053947;28;20194;-78
2022/04/23 07:01:24;;;;;;;7.30;4.17;;;10.60;99.90;;;;;;5057957;28;20191;-78
2022/04/23 07:03:51;;;;;;;5.93;3.97;;;10.70;99.90;;;;;;5051706;28;20194;-82
2022/04/23 07:06:19;;;;;;;4.60;4.10;;;10.70;99.90;;;;;;5051204;28;20233;-78
2022/04/23 07:08:46;;;;;;;6.37;4.50;;;11.00;99.90;;;;;;5058361;28;20631;-82
2022/04/23 07:11:19;;;;;;;5.53;4.03;;;10.80;99.90;;;;;;5057037;28;20602;-83
2022/04/23 07:13:57;;;;;;;5.00;3.90;;;10.90;99.90;;;;;;5053542;28;20552;-80
2022/04/23 07:16:24;;;;;;;6.67;4.37;;;11.10;99.90;;;;;;5054973;28;20628;-83
2022/04/23 07:18:52;;;;;;;5.77;4.20;;;11.30;99.90;;;;;;5056320;28;20228;-83
2022/04/23 07:21:21;;;;;;;7.87;4.13;;;11.30;99.90;;;;;;5056867;28;20204;-83
2022/04/23 07:24:06;;;;;;;6.37;3.50;;;11.40;99.90;;;;;;5053238;28;20202;-78
2022/04/23 07:26:37;;;;;;;7.97;4.17;;;11.50;99.90;;;;;;5052814;28;20663;-82
2022/04/23 07:29:07;;;;;;;9.67;4.77;;;11.40;99.90;;;;;;5053592;28;20227;-78
2022/04/23 07:31:36;;;;;;;5.17;4.10;;;11.40;99.90;;;;;;5057734;28;20206;-77
2022/04/23 07:39:37;;;;;;;5.63;4.20;;;11.30;99.90;;;;;;5034708;28;20575;-80
2022/04/23 07:42:06;;;;;;;6.47;4.20;;;11.40;99.90;;;;;;5032374;28;20560;-80
2022/04/23 07:44:33;;;;;;;5.63;4.07;;;11.40;99.90;;;;;;5033469;28;20203;-79
2022/04/23 07:47:00;;;;;;;6.43;4.07;;;11.50;99.90;;;;;;5034665;28;20251;-79
2022/04/23 07:49:27;;;;;;;5.23;4.03;;;11.40;99.90;;;;;;5035305;28;20227;-79
2022/04/23 07:51:57;;;;;;;5.77;3.97;;;11.50;99.90;;;;;;5035698;28;20195;-78
2022/04/23 07:54:24;;;;;;;6.67;4.20;;;11.30;99.90;;;;;;5031689;28;20196;-78
2022/04/23 07:56:51;;;;;;;6.40;4.83;;;11.30;99.90;;;;;;5031732;28;20206;-76
2022/04/23 07:59:18;;;;;;;6.20;3.97;;;11.30;99.90;;;;;;5033659;28;20214;-84
2022/04/23 08:01:44;;;;;;;5.70;3.97;;;11.30;99.90;;;;;;5033041;28;20290;-85
2022/04/23 08:04:11;;;;;;;6.23;4.60;;;11.40;99.90;;;;;;5037269;28;20200;-78
2022/04/23 08:06:38;;;;;;;5.93;4.60;;;11.30;99.90;;;;;;5032200;28;20291;-84
2022/04/23 08:09:05;;;;;;;5.27;4.20;;;11.30;99.90;;;;;;5034438;28;20223;-83
2022/04/23 08:11:32;;;;;;;5.63;4.10;;;11.20;99.90;;;;;;5038894;28;20203;-80
2022/04/23 08:13:59;;;;;;;6.13;4.07;;;11.00;99.90;;;;;;5036809;28;20198;-79
2022/04/23 08:16:29;;;;;;;6.23;3.80;;;11.10;99.90;;;;;;5047848;28;20249;-84
2022/04/23 08:18:56;;;;;;;4.73;3.43;;;10.90;99.90;;;;;;5055143;28;20659;-84
2022/04/23 08:21:24;;;;;;;5.00;3.90;;;11.00;99.90;;;;;;5035351;28;20660;-79
2022/04/23 08:23:51;;;;;;;5.03;3.70;;;11.10;99.90;;;;;;5051355;28;20644;-80
2022/04/23 08:26:17;;;;;;;6.67;4.00;;;11.10;99.90;;;;;;5052138;28;20253;-79
2022/04/23 08:31:30;;;;;;;6.53;4.70;;;10.90;99.90;;;;;;5051418;28;20191;-82
2022/04/23 08:33:57;;;;;;;7.40;4.90;;;10.80;99.90;;;;;;5053405;28;20260;-79
2022/04/23 08:36:36;;;;;;;8.90;6.40;;;10.80;99.90;;;;;;5052495;28;20233;-80
2022/04/23 08:39:09;;;;;;;9.07;5.60;;;10.80;99.90;;;;;;5051683;28;20632;-76
2022/04/23 08:41:39;;;;;;;6.60;5.27;;;10.80;99.90;;;;;;5035048;28;20207;-78
2022/04/23 08:44:08;;;;;;;6.80;5.40;;;10.70;99.90;;;;;;5044831;28;20234;-77
2022/04/23 08:46:39;;;;;;;9.80;5.73;;;10.60;99.90;;;;;;5037016;28;20321;-82
2022/04/23 08:49:23;;;;;;;7.47;5.30;;;10.40;99.90;;;;;;5032622;28;20703;-78
2022/04/23 08:52:32;;;;;;;7.73;5.67;;;10.40;99.90;;;;;;5033189;28;20549;-79
2022/04/23 08:55:04;;;;;;;7.03;5.67;;;10.20;99.90;;;;;;5035309;28;20199;-82
2022/04/23 08:57:31;;;;;;;7.20;5.37;;;10.30;99.90;;;;;;5038082;28;20294;-78
2022/04/23 09:00:00;;;;;;;7.07;5.40;;;10.20;99.90;;;;;;5035603;28;20286;-77
2022/04/23 09:02:28;;;;;;;9.70;5.73;;;9.70;99.90;;;;;;5038249;28;20254;-78
2022/04/23 09:04:59;;;;;;;9.47;5.97;;;9.60;99.90;;;;;;5035000;28;20207;-77
2022/04/23 09:07:29;;;;;;;8.93;6.37;;;9.70;99.90;;;;;;5035099;28;20212;-78
2022/04/23 09:09:57;;;;;;;8.37;6.10;;;9.70;99.90;;;;;;5035008;28;20322;-76
2022/04/23 09:12:32;;;;;;;7.73;6.40;;;9.50;99.90;;;;;;5035120;28;20269;-77
2022/04/23 09:23:43;;;;;;;8.60;6.87;;;9.60;99.90;;;;;;4980177;28;20207;-79
2022/04/23 09:26:23;;;;;;;11.03;7.30;;;9.80;99.90;;;;;;4995173;28;20239;-79
2022/04/23 09:29:13;;;;;;;12.37;8.00;;;9.70;99.90;;;;;;5001091;28;20692;-80
2022/04/23 09:31:41;;;;;;;11.37;7.60;;;9.70;99.90;;;;;;4999502;28;20582;-78
2022/04/23 09:34:18;;;;;;;9.90;7.77;;;9.70;99.90;;;;;;5012990;28;20254;-75
2022/04/23 09:36:49;;;;;;;9.73;7.23;;;9.70;99.90;;;;;;4997482;28;20203;-82
2022/04/23 09:39:34;;;;;;;10.93;7.47;;;9.60;99.90;;;;;;4997410;28;20676;-84
2022/04/23 09:42:18;;;;;;;11.07;7.90;;;9.60;99.90;;;;;;4996973;28;20654;-76
2022/04/23 09:44:48;;;;;;;11.43;8.23;;;9.50;99.90;;;;;;5013897;28;20290;-82
2022/04/23 09:47:31;;;;;;;11.83;9.00;;;9.50;99.90;;;;;;5013174;28;20258;-86
2022/04/23 09:49:58;;;;;;;11.87;8.30;;;9.50;99.90;;;;;;4997195;28;20232;-87
2022/04/23 09:52:43;;;;;;;12.37;8.70;;;9.60;99.90;;;;;;5014497;28;20210;-76
2022/04/23 09:55:26;;;;;;;11.57;8.70;;;9.70;99.90;;;;;;4997761;28;20242;-84
2022/04/23 09:58:39;;;;;;;11.73;8.50;;;9.90;99.90;;;;;;5023050;28;20200;-83
2022/04/23 10:01:11;;;;;;;11.53;7.73;;;10.20;99.90;;;;;;4970432;28;20200;-76
2022/04/23 10:03:44;;;;;;;11.67;6.90;;;10.90;99.90;;;;;;4978161;28;20209;-84
2022/04/23 10:06:12;;;;;;;9.73;7.10;;;11.50;99.90;;;;;;4978602;28;20654;-83
2022/04/23 10:08:45;;;;;;;8.40;6.70;;;12.40;99.90;;;;;;4994283;28;20267;-78
2022/04/23 10:11:20;;;;;;;7.37;6.10;;;13.30;99.90;;;;;;4993621;28;20205;-78
2022/04/23 10:13:53;;;;;;;8.13;5.93;;;14.00;99.90;;;;;;4966728;28;20196;-70
2022/04/23 10:16:21;;;;;;;7.20;5.10;;;14.40;99.90;;;;;;4973530;28;20221;-78
2022/04/23 10:18:49;;;;;;;6.70;5.17;;;14.40;99.90;;;;;;4957673;28;20201;-75
2022/04/23 10:21:42;;;;;;;6.90;5.30;;;14.50;99.90;;;;;;4973624;28;20288;-77
2022/04/23 10:24:28;;;;;;;7.50;5.03;;;14.30;99.90;;;;;;4907863;29;20291;-71
2022/04/23 10:26:59;;;;;;;6.20;5.00;;;13.90;99.90;;;;;;4916652;29;20227;-75
2022/04/23 10:29:28;;;;;;;5.57;4.43;;;13.90;99.90;;;;;;4899961;29;20267;-69
2022/04/23 10:32:16;;;;;;;5.67;4.20;;;13.80;99.90;;;;;;4900425;29;20203;-77
2022/04/23 10:34:44;;;;;;;5.17;4.17;;;13.40;99.90;;;;;;4916186;29;20298;-79
2022/04/23 10:37:17;;;;;;;5.30;4.17;;;13.20;99.90;;;;;;4928755;29;20686;-71
2022/04/23 10:39:50;;;;;;;5.53;3.90;;;12.90;99.90;;;;;;4937744;29;20653;-74
2022/04/23 10:42:25;;;;;;;6.10;4.57;;;12.70;99.90;;;;;;4937680;29;20286;-71
2022/04/23 10:45:03;;;;;;;8.40;4.37;;;12.60;99.90;;;;;;4953269;28;20216;-78
2022/04/23 10:47:39;;;;;;;5.50;4.13;;;12.50;99.90;;;;;;4972979;28;20244;-72
2022/04/23 10:50:13;;;;;;;6.07;4.30;;;12.40;99.90;;;;;;4956617;28;20233;-73
2022/04/23 10:52:47;;;;;;;6.17;4.30;;;12.20;99.90;;;;;;4972632;28;20305;-78
2022/04/23 10:56:07;;;;;;;4.90;4.00;;;12.20;99.90;;;;;;4956607;28;20280;-71
2022/04/23 10:58:34;;;;;;;4.83;3.83;;;12.20;99.90;;;;;;4973148;28;20205;-72
2022/04/23 11:01:21;;;;;;;4.70;3.67;;;12.20;99.90;;;;;;4999501;28;20204;-72
2022/04/23 11:03:57;;;;;;;4.30;3.50;;;12.10;99.90;;;;;;5032533;28;20199;-80
2022/04/23 11:12:23;;;;;;;5.57;4.23;;;12.10;99.90;;;;;;5033835;28;20191;-74
2022/04/23 11:14:55;;;;;;;6.70;4.40;;;12.00;99.90;;;;;;5043435;28;20198;-81
2022/04/23 11:17:44;;;;;;;6.10;4.40;;;11.80;99.90;;;;;;5057343;28;20198;-86
2022/04/23 11:20:11;;;;;;;6.10;4.70;;;11.90;99.90;;;;;;5040810;28;20284;-86
2022/04/23 11:22:39;;;;;;;7.87;4.43;;;11.60;99.90;;;;;;5060036;28;20206;-86
2022/04/23 11:25:07;;;;;;;5.90;4.33;;;11.60;99.90;;;;;;5062513;28;20187;-83
2022/04/23 11:27:37;;;;;;;6.10;4.80;;;11.60;99.90;;;;;;5058202;28;20644;-77
2022/04/23 11:30:08;;;;;;;6.00;4.80;;;11.70;99.90;;;;;;5053939;28;20254;-74
2022/04/23 11:32:36;;;;;;;6.37;5.00;;;11.80;99.90;;;;;;5055578;28;20189;-75
2022/04/23 11:35:05;;;;;;;7.23;5.50;;;11.80;99.90;;;;;;5052763;28;20195;-75
2022/04/23 11:37:34;;;;;;;6.97;5.47;;;11.80;99.90;;;;;;5052308;28;20598;-78
2022/04/23 11:40:06;;;;;;;8.70;5.10;;;11.90;99.90;;;;;;5051932;28;20198;-76
2022/04/23 11:42:44;;;;;;;5.77;4.60;;;11.90;99.90;;;;;;5052158;28;20195;-74
2022/04/23 11:45:14;;;;;;;7.20;4.57;;;11.90;99.90;;;;;;5054442;28;20202;-75
2022/04/23 11:47:41;;;;;;;7.93;4.87;;;12.10;99.90;;;;;;5055263;28;20277;-74
2022/04/23 11:50:09;;;;;;;8.57;4.97;;;12.30;99.90;;;;;;5055196;28;20322;-74
2022/04/23 11:52:41;;;;;;;6.27;4.40;;;12.50;99.90;;;;;;5073315;28;20182;-74
2022/04/23 11:55:35;;;;;;;6.20;4.27;;;12.60;99.90;;;;;;5073756;28;20186;-79
2022/04/23 11:58:49;;;;;;;7.47;4.50;;;12.60;99.90;;;;;;4960145;29;20237;-77
2022/04/23 12:02:36;;;;;;;7.57;4.57;;;12.40;99.90;;;;;;5058466;28;20226;-80
2022/04/23 12:05:05;;;;;;;6.07;4.40;;;12.30;99.90;;;;;;5014649;28;20716;-75
2022/04/23 12:07:36;;;;;;;6.67;4.50;;;12.60;99.90;;;;;;5016602;28;20664;-84
2022/04/23 12:10:05;;;;;;;5.73;4.20;;;12.80;99.90;;;;;;5014747;28;20766;-80
2022/04/23 12:12:34;;;;;;;6.63;4.30;;;13.00;99.90;;;;;;5031690;28;20199;-79
2022/04/23 12:15:09;;;;;;;5.20;3.97;;;13.00;99.90;;;;;;5031635;28;20195;-85
2022/04/23 12:17:51;;;;;;;4.90;4.10;;;13.00;99.90;;;;;;5032577;28;20202;-76
2022/04/23 12:20:23;;;;;;;4.80;4.00;;;13.30;99.90;;;;;;5032717;28;20328;-85
2022/04/23 12:23:00;;;;;;;6.10;4.23;;;13.70;99.90;;;;;;5016184;28;20723;-86
2022/04/23 12:25:36;;;;;;;5.80;3.93;;;14.20;99.90;;;;;;5015641;28;20229;-86
2022/04/23 12:42:30;;;;;;;4.50;3.13;;;17.00;99.90;;;;;;5031900;28;20200;-74
2022/04/23 12:44:58;;;;;;;4.10;3.40;;;16.90;99.20;;;;;;5018707;28;20192;-74
2022/04/23 12:47:34;;;;;;;6.27;3.67;;;17.30;99.60;;;;;;5036091;28;20194;-77
2022/04/23 12:50:07;;;;;;;4.60;3.37;;;17.90;96.40;;;;;;5018037;28;20292;-76
2022/04/23 12:52:37;;;;;;;4.20;3.40;;;18.10;92.50;;;;;;5002912;28;20196;-76
2022/04/23 12:55:37;;;;;;;4.97;3.60;;;18.00;91.40;;;;;;5018368;28;20219;-74
2022/04/23 12:58:05;;;;;;;4.37;3.63;;;17.90;92.20;;;;;;5023681;28;20287;-77
2022/04/23 13:00:38;;;;;;;6.77;4.90;;;17.70;92.70;;;;;;5037691;28;20206;-79
2022/04/23 13:03:35;;;;;;;5.40;3.47;;;17.40;91.30;;;;;;5040231;28;20199;-78
2022/04/23 13:08:55;;;;;;;6.87;3.70;;;16.90;92.40;;;;;;5038828;28;20195;-84
2022/04/23 13:11:33;;;;;;;4.60;3.20;;;16.50;93.40;;;;;;5042769;28;20297;-82
2022/04/23 13:14:22;;;;;;;4.50;3.63;;;16.40;93.60;;;;;;5043647;28;20666;-80
2022/04/23 13:26:18;;;;;;;5.63;3.73;;;16.10;97.10;;;;;;4861254;29;20196;-77
2022/04/23 13:29:16;;;;;;;4.63;3.60;;;16.00;96.80;;;;;;4861211;29;20597;-82
2022/04/23 13:32:18;;;;;;;;;;;;;;;;;;;;;
2022/04/23 13:35:00;;;;;;;5.00;3.60;;;16.00;97.50;;;;;;4964307;27;3049679;-78
2022/04/23 13:37:28;;;;;;;5.70;3.20;;;16.20;97.90;;;;;;5072419;28;20202;-81
2022/04/23 13:40:05;;;;;;;3.80;3.40;;;16.10;97.30;;;;;;5056358;28;20639;-84
2022/04/23 13:42:33;;;;;;;4.20;3.33;;;16.30;97.30;;;;;;5056470;28;20216;-81
2022/04/23 13:45:01;;;;;;;4.60;3.60;;;16.20;97.00;;;;;;5075187;28;20233;-76
2022/04/23 13:47:28;;;;;;;4.07;3.50;;;16.10;97.00;;;;;;5072408;28;20262;-80
2022/04/23 13:49:55;;;;;;;6.33;3.67;;;15.80;96.30;;;;;;5073260;28;20278;-83
2022/04/23 13:52:26;;;;;;;3.73;3.03;;;15.50;96.60;;;;;;5055738;28;20198;-81
2022/04/23 13:54:53;;;;;;;4.27;3.60;;;15.30;97.70;;;;;;5052063;28;20689;-79
2022/04/23 13:57:23;;;;;;;4.87;3.43;;;15.30;98.60;;;;;;5053032;28;20297;-79
2022/04/23 13:59:51;;;;;;;3.53;3.10;;;15.40;99.10;;;;;;5052294;28;20217;-82
2022/04/23 14:11:41;;;;;;;3.23;2.20;;;15.50;99.50;;;;;;5053162;28;20225;-82
2022/04/23 14:14:16;;;;;;;4.20;2.40;;;15.70;96.10;;;;;;4969166;28;20225;-77
2022/04/23 14:16:43;;;;;;;2.67;2.00;;;15.60;95.40;;;;;;4969932;28;20194;-79
2022/04/23 14:19:11;;;;;;;2.27;1.90;;;15.50;95.20;;;;;;4953717;28;20205;-79
2022/04/23 14:21:41;;;;;;;2.10;1.90;;;15.30;96.00;;;;;;4953163;28;20236;-78
2022/04/23 14:24:18;;;;;;;2.63;1.70;;;15.20;97.10;;;;;;4959895;28;20201;-88
2022/04/23 14:26:45;;;;;;;2.57;1.50;;;15.30;96.60;;;;;;4939248;28;20198;-75
2022/04/23 14:29:12;;;;;;;2.10;1.50;;;15.40;96.40;;;;;;4955077;28;20201;-80
2022/04/23 14:31:39;;;;;;;1.20;1.10;;;15.50;96.50;;;;;;4953530;28;20198;-76